createdAt,value
2023-05-14T00:00:31.568Z,94261.38
2023-05-14T00:02:58.422Z,94262.97
2023-05-14T00:05:25.297Z,94259.09
2023-05-14T00:07:51.981Z,94249.75
2023-05-14T00:10:20.696Z,94253.25
2023-05-14T00:12:47.914Z,94258.75
2023-05-14T00:15:14.621Z,94250.59
2023-05-14T00:17:42.488Z,94252.59
2023-05-14T00:20:12.036Z,94247.53
2023-05-14T00:22:39.817Z,94252.97
2023-05-14T00:25:07.892Z,94239.72
2023-05-14T00:27:36.108Z,94249.06
2023-05-14T00:30:04.250Z,94250.69
2023-05-14T00:32:30.986Z,94252.66
2023-05-14T00:34:57.940Z,94250.34
2023-05-14T00:37:24.672Z,94242.94
2023-05-14T00:39:51.659Z,94242.16
2023-05-14T00:42:18.512Z,94235.91
2023-05-14T00:44:45.159Z,94236.72
2023-05-14T00:47:12.300Z,94229.72
2023-05-14T00:49:40.963Z,94227.00
2023-05-14T00:52:08.754Z,94229.72
2023-05-14T00:54:36.542Z,94228.16
2023-05-14T00:57:04.795Z,94222.28
2023-05-14T00:59:31.802Z,94226.22
2023-05-14T01:01:58.815Z,94220.41
2023-05-14T01:04:25.710Z,94211.41
2023-05-14T01:07:22.989Z,94218.44
2023-05-14T01:10:28.187Z,94216.06
2023-05-14T01:12:58.005Z,94216.06
2023-05-14T01:15:30.723Z,94219.97
2023-05-14T01:18:08.664Z,94209.81
2023-05-14T01:20:36.468Z,94219.94
2023-05-14T01:23:03.870Z,94205.13
2023-05-14T01:25:31.476Z,94213.34
2023-05-14T01:28:18.055Z,94214.13
2023-05-14T01:31:08.274Z,94203.19
2023-05-14T01:33:37.083Z,94205.94
2023-05-14T01:36:04.759Z,94208.28
2023-05-14T01:38:34.210Z,94208.66
2023-05-14T01:41:02.185Z,94205.94
2023-05-14T01:43:29.952Z,94208.66
2023-05-14T01:45:56.834Z,94205.16
2023-05-14T01:48:25.151Z,94203.19
2023-05-14T01:50:52.485Z,94204.75
2023-05-14T01:53:19.201Z,94203.59
2023-05-14T01:55:45.953Z,94201.66
2023-05-14T01:58:12.768Z,94198.16
2023-05-14T02:00:39.429Z,94195.44
2023-05-14T02:03:06.317Z,94196.59
2023-05-14T02:05:33.115Z,94195.81
2023-05-14T02:07:59.770Z,94193.84
2023-05-14T02:10:26.421Z,94195.00
2023-05-14T02:12:52.980Z,94198.91
2023-05-14T02:15:19.506Z,94198.13
2023-05-14T02:17:46.494Z,94196.19
2023-05-14T02:20:13.276Z,94200.47
2023-05-14T02:22:42.276Z,94200.09
2023-05-14T02:25:09.578Z,94204.00
2023-05-14T02:27:36.171Z,94202.03
2023-05-14T02:30:03.579Z,94197.00
2023-05-14T02:32:30.268Z,94203.22
2023-05-14T02:34:56.876Z,94200.13
2023-05-14T02:37:23.439Z,94201.28
2023-05-14T02:39:50.658Z,94199.72
2023-05-14T02:42:17.274Z,94200.50
2023-05-14T02:44:43.953Z,94196.97
2023-05-14T02:47:10.926Z,94198.91
2023-05-14T02:49:37.483Z,94201.66
2023-05-14T02:52:04.110Z,94198.16
2023-05-14T02:54:30.716Z,94200.50
2023-05-14T02:56:57.299Z,94191.53
2023-05-14T02:59:24.870Z,94189.97
2023-05-14T03:01:51.994Z,94188.81
2023-05-14T03:04:19.040Z,94193.47
2023-05-14T03:06:45.608Z,94186.47
2023-05-14T03:09:12.283Z,94191.13
2023-05-14T03:11:38.935Z,94182.94
2023-05-14T03:14:05.470Z,94178.66
2023-05-14T03:16:32.011Z,94177.50
2023-05-14T03:18:58.738Z,94178.28
2023-05-14T03:21:25.506Z,94175.16
2023-05-14T03:23:52.848Z,94170.09
2023-05-14T03:26:19.424Z,94171.25
2023-05-14T03:28:45.946Z,94177.06
2023-05-14T03:31:12.684Z,94172.41
2023-05-14T03:33:39.517Z,94175.13
2023-05-14T03:36:06.128Z,94182.91
2023-05-14T03:38:32.639Z,94177.84
2023-05-14T03:40:59.217Z,94172.38
2023-05-14T03:43:25.983Z,94179.41
2023-05-14T03:45:52.838Z,94173.94
2023-05-14T03:48:20.172Z,94168.88
2023-05-14T03:50:47.131Z,94173.97
2023-05-14T03:53:13.769Z,94174.72
2023-05-14T03:55:40.353Z,94161.84
2023-05-14T03:58:13.933Z,94167.69
2023-05-14T04:00:43.636Z,94173.94
2023-05-14T04:03:11.321Z,94168.88
2023-05-14T04:05:37.992Z,94184.06
2023-05-14T04:08:04.702Z,94179.78
2023-05-14T04:10:32.036Z,94182.16
2023-05-14T04:12:59.575Z,94177.88
2023-05-14T04:15:30.964Z,94175.13
2023-05-14T04:17:57.612Z,94172.00
2023-05-14T04:20:24.407Z,94176.31
2023-05-14T04:22:51.080Z,94174.75
2023-05-14T04:25:18.531Z,94178.28
2023-05-14T04:27:45.131Z,94177.09
2023-05-14T04:30:11.938Z,94181.78
2023-05-14T04:32:39.032Z,94187.63
2023-05-14T04:35:06.383Z,94182.53
2023-05-14T04:37:33.117Z,94175.16
2023-05-14T04:39:59.748Z,94182.59
2023-05-14T04:42:26.452Z,94177.50
2023-05-14T04:44:53.046Z,94181.03
2023-05-14T04:47:21.076Z,94188.81
2023-05-14T04:49:47.780Z,94176.31
2023-05-14T04:52:14.314Z,94178.28
2023-05-14T04:54:41.000Z,94179.84
2023-05-14T04:57:07.622Z,94179.03
2023-05-14T04:59:34.229Z,94179.44
2023-05-14T05:02:00.944Z,94179.44
2023-05-14T05:04:27.839Z,94181.75
2023-05-14T05:06:54.380Z,94177.50
2023-05-14T05:09:20.936Z,94178.28
2023-05-14T05:11:47.493Z,94177.09
2023-05-14T05:14:14.115Z,94185.28
2023-05-14T05:16:40.659Z,94173.53
2023-05-14T05:19:07.368Z,94176.69
2023-05-14T05:21:34.262Z,94174.34
2023-05-14T05:24:00.821Z,94176.28
2023-05-14T05:26:27.988Z,94172.00
2023-05-14T05:28:54.519Z,94179.81
2023-05-14T05:31:21.085Z,94174.34
2023-05-14T05:33:47.936Z,94172.38
2023-05-14T05:36:14.517Z,94177.00
2023-05-14T05:38:41.384Z,94179.34
2023-05-14T05:41:08.136Z,94180.91
2023-05-14T05:43:34.806Z,94179.00
2023-05-14T05:46:01.632Z,94173.47
2023-05-14T05:48:28.338Z,94174.66
2023-05-14T05:50:55.122Z,94174.63
2023-05-14T05:53:21.830Z,94180.47
2023-05-14T05:55:48.404Z,94180.41
2023-05-14T05:58:17.174Z,94171.72
2023-05-14T06:00:43.990Z,94175.19
2023-05-14T06:03:11.262Z,94169.19
2023-05-14T06:05:37.918Z,94173.06
2023-05-14T06:08:04.822Z,94166.03
2023-05-14T06:10:31.630Z,94161.66
2023-05-14T06:12:58.242Z,94158.41
2023-05-14T06:15:25.034Z,94157.50
2023-05-14T06:17:51.738Z,94172.75
2023-05-14T06:20:22.054Z,94165.88
2023-05-14T06:22:48.785Z,94163.47
2023-05-14T06:25:15.616Z,94167.69
2023-05-14T06:27:42.637Z,94167.31
2023-05-14T06:30:11.037Z,94170.44
2023-05-14T06:32:37.791Z,94173.28
2023-05-14T06:35:04.602Z,94171.00
2023-05-14T06:37:31.191Z,94167.88
2023-05-14T06:39:58.097Z,94174.50
2023-05-14T06:42:25.085Z,94171.72
2023-05-14T06:44:51.628Z,94166.53
2023-05-14T06:47:18.494Z,94171.53
2023-05-14T06:49:45.403Z,94169.63
2023-05-14T06:52:12.201Z,94181.19
2023-05-14T06:54:39.353Z,94178.09
2023-05-14T06:57:06.124Z,94182.41
2023-05-14T06:59:33.315Z,94177.38
2023-05-14T07:02:00.028Z,94177.84
2023-05-14T07:04:29.828Z,94166.50
2023-05-14T07:06:56.847Z,94173.94
2023-05-14T07:09:23.517Z,94170.31
2023-05-14T07:11:50.085Z,94178.97
2023-05-14T07:14:16.826Z,94171.06
2023-05-14T07:16:43.548Z,94171.69
2023-05-14T07:19:10.430Z,94170.03
2023-05-14T07:21:37.040Z,94170.28
2023-05-14T07:24:03.939Z,94165.78
2023-05-14T07:26:31.477Z,94164.03
2023-05-14T07:28:58.204Z,94159.16
2023-05-14T07:31:24.914Z,94150.06
2023-05-14T07:33:52.113Z,94152.72
2023-05-14T07:36:18.659Z,94144.34
2023-05-14T07:38:45.333Z,94149.94
2023-05-14T07:41:12.249Z,94157.47
2023-05-14T07:43:40.454Z,94156.84
2023-05-14T07:46:07.252Z,94150.44
2023-05-14T07:48:34.297Z,94152.91
2023-05-14T07:51:00.939Z,94155.22
2023-05-14T07:53:27.517Z,94151.25
2023-05-14T07:55:54.614Z,94159.44
2023-05-14T07:58:21.229Z,94155.59
2023-05-14T08:00:47.782Z,94154.44
2023-05-14T08:03:14.949Z,94158.25
2023-05-14T08:05:41.706Z,94157.50
2023-05-14T08:08:08.266Z,94152.75
2023-05-14T08:10:34.922Z,94165.34
2023-05-14T08:13:01.585Z,94156.63
2023-05-14T08:15:28.183Z,94154.44
2023-05-14T08:17:58.850Z,94151.03
2023-05-14T08:20:25.674Z,94152.16
2023-05-14T08:22:52.766Z,94156.31
2023-05-14T08:25:19.302Z,94154.19
2023-05-14T08:27:45.845Z,94148.81
2023-05-14T08:30:12.832Z,94158.84
2023-05-14T08:32:39.572Z,94151.34
2023-05-14T08:35:06.815Z,94153.47
2023-05-14T08:37:33.336Z,94154.34
2023-05-14T08:39:59.929Z,94150.94
2023-05-14T08:42:28.605Z,94158.75
2023-05-14T08:45:03.223Z,94153.44
2023-05-14T08:47:30.927Z,94148.84
2023-05-14T08:50:08.310Z,94143.38
2023-05-14T08:52:35.555Z,94148.63
2023-05-14T08:55:06.406Z,94147.00
2023-05-14T08:57:34.262Z,94142.00
2023-05-14T09:00:02.338Z,94144.28
2023-05-14T09:02:31.458Z,94137.44
2023-05-14T09:05:15.997Z,94129.22
2023-05-14T09:07:43.462Z,94133.75
2023-05-14T09:10:18.496Z,94123.94
2023-05-14T09:12:49.774Z,94123.31
2023-05-14T09:15:18.088Z,94118.78
2023-05-14T09:17:47.967Z,94112.50
2023-05-14T09:20:15.131Z,94110.78
2023-05-14T09:22:42.098Z,94122.50
2023-05-14T09:25:12.197Z,94117.00
2023-05-14T09:27:38.993Z,94106.31
2023-05-14T09:30:13.123Z,94102.88
2023-05-14T09:32:46.176Z,94111.41
2023-05-14T09:35:22.572Z,94100.91
2023-05-14T09:37:54.436Z,94105.06
2023-05-14T09:40:24.361Z,94106.56
2023-05-14T09:42:51.352Z,94100.03
2023-05-14T09:45:18.228Z,94104.22
2023-05-14T09:47:45.280Z,94110.53
2023-05-14T09:50:12.527Z,94106.81
2023-05-14T09:52:39.901Z,94098.50
2023-05-14T09:55:07.959Z,94098.16
2023-05-14T09:57:35.375Z,94093.44
2023-05-14T10:00:02.134Z,94094.69
2023-05-14T10:02:40.954Z,94090.22
2023-05-14T10:05:08.419Z,94093.06
2023-05-14T10:07:48.078Z,94087.19
2023-05-14T10:10:19.878Z,94098.38
2023-05-14T10:12:57.379Z,94084.44
2023-05-14T10:15:33.454Z,94093.56
2023-05-14T10:18:05.821Z,94093.78
2023-05-14T10:20:32.729Z,94095.97
2023-05-14T10:22:59.629Z,94096.75
2023-05-14T10:25:27.044Z,94089.69
2023-05-14T10:27:54.582Z,94095.25
2023-05-14T10:30:25.575Z,94091.53
2023-05-14T10:33:12.791Z,94085.75
2023-05-14T10:36:02.587Z,94083.09
2023-05-14T10:38:34.479Z,94080.84
2023-05-14T10:41:06.100Z,94083.84
2023-05-14T10:43:38.448Z,94088.50
2023-05-14T10:46:05.665Z,94080.63
2023-05-14T10:48:33.732Z,94087.03
2023-05-14T10:51:01.272Z,94081.47
2023-05-14T10:53:34.052Z,94086.34
2023-05-14T10:56:08.863Z,94079.44
2023-05-14T10:58:37.578Z,94074.03
2023-05-14T11:01:06.611Z,94066.81
2023-05-14T11:03:39.807Z,94069.97
2023-05-14T11:06:07.548Z,94060.44
2023-05-14T11:08:34.313Z,94062.69
2023-05-14T11:11:00.885Z,94052.09
2023-05-14T11:13:28.001Z,94048.53
2023-05-14T11:15:55.652Z,94049.72
2023-05-14T11:18:38.462Z,94049.56
2023-05-14T11:21:05.269Z,94058.50
2023-05-14T11:23:31.986Z,94052.72
2023-05-14T11:25:58.533Z,94055.31
2023-05-14T11:28:26.690Z,94054.34
2023-05-14T11:30:54.072Z,94051.00
2023-05-14T11:33:21.100Z,94054.44
2023-05-14T11:35:48.431Z,94047.00
2023-05-14T11:38:20.214Z,94037.47
2023-05-14T11:40:54.550Z,94034.69
2023-05-14T11:43:23.724Z,94026.03
2023-05-14T11:45:52.260Z,94022.59
2023-05-14T11:48:19.912Z,94021.84
2023-05-14T11:50:51.923Z,94017.22
2023-05-14T11:53:26.664Z,94013.09
2023-05-14T11:55:54.706Z,94028.41
2023-05-14T11:58:21.981Z,94026.56
2023-05-14T12:00:52.450Z,94031.31
2023-05-14T12:03:30.396Z,94040.56
2023-05-14T12:06:01.205Z,94041.94
2023-05-14T12:08:31.413Z,94038.41
2023-05-14T12:10:59.655Z,94036.50
2023-05-14T12:13:27.893Z,94031.06
2023-05-14T12:15:56.694Z,94030.34
2023-05-14T12:18:27.371Z,94030.63
2023-05-14T12:20:54.163Z,94022.00
2023-05-14T12:23:31.487Z,94016.50
2023-05-14T12:26:06.494Z,94006.00
2023-05-14T12:28:36.051Z,94000.00
2023-05-14T12:31:04.492Z,94000.56
2023-05-14T12:33:31.096Z,93999.28
2023-05-14T12:36:09.953Z,94002.81
2023-05-14T12:38:41.309Z,94002.09
2023-05-14T12:41:07.905Z,93999.34
2023-05-14T12:43:34.489Z,94001.56
2023-05-14T12:46:01.312Z,94003.72
2023-05-14T12:48:28.087Z,94000.94
2023-05-14T12:50:54.644Z,93996.53
2023-05-14T12:53:21.194Z,94003.16
2023-05-14T12:55:48.003Z,94000.91
2023-05-14T12:58:14.577Z,94001.13
2023-05-14T13:00:41.319Z,93997.50
2023-05-14T13:03:08.148Z,93985.81
2023-05-14T13:05:34.845Z,93998.63
2023-05-14T13:08:05.136Z,94012.72
2023-05-14T13:10:31.656Z,94016.84
2023-05-14T13:12:58.250Z,94023.44
2023-05-14T13:15:25.340Z,94035.69
2023-05-14T13:17:53.218Z,94045.38
2023-05-14T13:20:20.078Z,94037.69
2023-05-14T13:22:46.671Z,94042.34
2023-05-14T13:25:13.206Z,94034.34
2023-05-14T13:27:39.744Z,94040.16
2023-05-14T13:30:07.186Z,94041.97
2023-05-14T13:32:33.829Z,94038.88
2023-05-14T13:35:00.378Z,94041.00
2023-05-14T13:37:27.056Z,94038.25
2023-05-14T13:39:53.735Z,94044.19
2023-05-14T13:42:22.063Z,94038.25
2023-05-14T13:44:48.890Z,94029.06
2023-05-14T13:47:24.464Z,94027.94
2023-05-14T13:49:53.136Z,94030.97
2023-05-14T13:52:19.887Z,94032.06
2023-05-14T13:54:46.484Z,94027.31
2023-05-14T13:57:13.102Z,94027.34
2023-05-14T13:59:39.812Z,94028.41
2023-05-14T14:02:08.607Z,94018.72
2023-05-14T14:04:35.268Z,94015.28
2023-05-14T14:07:01.916Z,94010.03
2023-05-14T14:09:28.537Z,94000.72
2023-05-14T14:11:55.116Z,94007.13
2023-05-14T14:14:21.921Z,94003.41
2023-05-14T14:16:48.579Z,94007.88
2023-05-14T14:19:16.241Z,94004.91
2023-05-14T14:21:44.499Z,94006.75
2023-05-14T14:24:11.267Z,94003.63
2023-05-14T14:26:37.908Z,94000.44
2023-05-14T14:29:04.558Z,93996.03
2023-05-14T14:31:31.162Z,93989.88
2023-05-14T14:33:57.795Z,93989.00
2023-05-14T14:36:24.498Z,93982.63
2023-05-14T14:38:51.152Z,93981.16
2023-05-14T14:41:17.789Z,93969.78
2023-05-14T14:43:44.409Z,93969.50
2023-05-14T14:46:11.221Z,93971.78
2023-05-14T14:48:38.445Z,93957.34
2023-05-14T14:51:06.722Z,93958.19
2023-05-14T14:53:34.465Z,93968.22
2023-05-14T14:56:01.741Z,93960.63
2023-05-14T14:58:28.657Z,93954.16
2023-05-14T15:00:56.702Z,93960.22
2023-05-14T15:03:25.001Z,93961.25
2023-05-14T15:05:53.272Z,93963.16
2023-05-14T15:08:20.865Z,93971.28
2023-05-14T15:10:47.475Z,93974.09
2023-05-14T15:13:14.072Z,93972.25
2023-05-14T15:15:40.654Z,93979.97
2023-05-14T15:18:07.224Z,93970.66
2023-05-14T15:20:33.886Z,93977.72
2023-05-14T15:23:00.483Z,93971.41
2023-05-14T15:25:27.233Z,93965.31
2023-05-14T15:27:53.925Z,93978.78
2023-05-14T15:30:20.621Z,93980.19
2023-05-14T15:32:47.375Z,93973.91
2023-05-14T15:35:14.348Z,93981.44
2023-05-14T15:37:43.731Z,93983.00
2023-05-14T15:40:11.442Z,93987.66
2023-05-14T15:42:40.022Z,93986.53
2023-05-14T15:45:06.951Z,93997.47
2023-05-14T15:47:33.811Z,94001.56
2023-05-14T15:50:00.758Z,94000.22
2023-05-14T15:52:27.415Z,93993.59
2023-05-14T15:54:55.906Z,93993.31
2023-05-14T15:57:22.499Z,93987.94
2023-05-14T15:59:49.300Z,93978.66
2023-05-14T16:02:15.986Z,93987.72
2023-05-14T16:04:42.667Z,93986.03
2023-05-14T16:07:09.966Z,93985.94
2023-05-14T16:09:36.877Z,93979.59
2023-05-14T16:12:05.096Z,93976.16
2023-05-14T16:14:33.809Z,93979.41
2023-05-14T16:17:01.717Z,93970.03
2023-05-14T16:19:28.618Z,93969.69
2023-05-14T16:21:55.450Z,93967.56
2023-05-14T16:24:22.349Z,93971.25
2023-05-14T16:26:48.917Z,93965.31
2023-05-14T16:29:16.523Z,93963.78
2023-05-14T16:31:43.791Z,93964.06
2023-05-14T16:34:16.142Z,93962.75
2023-05-14T16:36:42.843Z,93958.81
2023-05-14T16:39:09.891Z,93960.69
2023-05-14T16:41:36.865Z,93963.63
2023-05-14T16:44:11.196Z,93967.41
2023-05-14T16:46:38.411Z,93965.47
2023-05-14T16:49:05.272Z,93966.19
2023-05-14T16:51:34.811Z,93967.31
2023-05-14T16:54:01.696Z,93967.19
2023-05-14T16:56:30.504Z,93964.88
2023-05-14T16:58:57.037Z,93960.34
2023-05-14T17:01:23.661Z,93960.78
2023-05-14T17:03:50.718Z,93967.31
2023-05-14T17:06:17.247Z,93956.78
2023-05-14T17:08:43.993Z,93965.31
2023-05-14T17:11:14.015Z,93966.69
2023-05-14T17:13:43.540Z,93968.00
2023-05-14T17:16:10.190Z,93964.81
2023-05-14T17:18:36.792Z,93961.22
2023-05-14T17:21:05.733Z,93971.13
2023-05-14T17:23:35.050Z,93973.63
2023-05-14T17:26:01.922Z,93973.41
2023-05-14T17:28:29.985Z,93979.41
2023-05-14T17:30:57.100Z,93980.97
2023-05-14T17:33:25.737Z,93977.72
2023-05-14T17:35:52.286Z,93977.84
2023-05-14T17:38:18.870Z,93977.56
2023-05-14T17:40:45.687Z,93979.31
2023-05-14T17:43:12.317Z,93976.25
2023-05-14T17:45:52.577Z,93981.88
2023-05-14T17:48:21.296Z,93982.13
2023-05-14T17:50:48.841Z,93984.41
2023-05-14T17:53:15.620Z,93982.06
2023-05-14T17:55:43.668Z,93984.78
2023-05-14T17:58:15.259Z,93988.75
2023-05-14T18:00:41.987Z,93988.00
2023-05-14T18:03:11.793Z,93991.69
2023-05-14T18:05:38.517Z,93993.34
2023-05-14T18:08:09.471Z,93991.88
2023-05-14T18:10:36.788Z,93999.81
2023-05-14T18:13:03.727Z,93998.38
2023-05-14T18:15:32.868Z,93989.88
2023-05-14T18:17:59.742Z,93993.41
2023-05-14T18:20:26.394Z,93993.09
2023-05-14T18:22:53.285Z,93990.41
2023-05-14T18:25:19.813Z,93999.06
2023-05-14T18:27:46.961Z,93997.22
2023-05-14T18:30:52.283Z,93991.84
2023-05-14T18:34:57.192Z,93996.72
2023-05-14T18:37:23.783Z,94002.75
2023-05-14T18:39:56.388Z,94007.06
2023-05-14T18:42:30.363Z,94002.03
2023-05-14T18:45:06.849Z,94004.03
2023-05-14T18:47:34.538Z,94003.63
2023-05-14T18:50:02.187Z,94002.91
2023-05-14T18:52:29.301Z,94001.00
2023-05-14T18:54:55.970Z,94005.81
2023-05-14T18:57:22.914Z,94004.66
2023-05-14T18:59:49.440Z,94011.44
2023-05-14T19:02:16.167Z,94013.78
2023-05-14T19:04:51.795Z,94008.28
2023-05-14T19:07:22.728Z,94021.22
2023-05-14T19:09:49.333Z,94025.91
2023-05-14T19:12:16.067Z,94023.53
2023-05-14T19:14:42.987Z,94021.97
2023-05-14T19:17:09.544Z,94030.19
2023-05-14T19:19:36.470Z,94029.06
2023-05-14T19:22:06.619Z,94028.31
2023-05-14T19:24:33.295Z,94031.44
2023-05-14T19:26:59.927Z,94040.81
2023-05-14T19:29:26.982Z,94040.00
2023-05-14T19:31:53.576Z,94049.75
2023-05-14T19:34:20.526Z,94044.69
2023-05-14T19:36:47.519Z,94045.88
2023-05-14T19:39:14.097Z,94045.47
2023-05-14T19:41:40.706Z,94041.56
2023-05-14T19:44:10.427Z,94043.94
2023-05-14T19:46:37.105Z,94048.66
2023-05-14T19:49:03.847Z,94049.41
2023-05-14T19:51:30.997Z,94051.38
2023-05-14T19:53:57.625Z,94051.00
2023-05-14T19:56:25.700Z,94056.84
2023-05-14T19:58:53.905Z,94056.84
2023-05-14T20:01:22.183Z,94056.81
2023-05-14T20:03:48.757Z,94061.09
2023-05-14T20:06:15.612Z,94069.69
2023-05-14T20:08:42.305Z,94065.75
2023-05-14T20:11:08.841Z,94068.91
2023-05-14T20:13:36.712Z,94062.28
2023-05-14T20:16:03.332Z,94062.66
2023-05-14T20:18:29.979Z,94053.69
2023-05-14T20:20:56.606Z,94054.47
2023-05-14T20:23:23.131Z,94058.38
2023-05-14T20:25:49.656Z,94054.09
2023-05-14T20:28:16.198Z,94050.59
2023-05-14T20:30:42.864Z,94045.09
2023-05-14T20:33:09.669Z,94042.78
2023-05-14T20:35:36.251Z,94037.72
2023-05-14T20:38:06.123Z,94040.09
2023-05-14T20:40:32.845Z,94034.66
2023-05-14T20:42:59.536Z,94031.97
2023-05-14T20:45:26.423Z,94024.16
2023-05-14T20:47:53.381Z,94015.63
2023-05-14T20:50:20.043Z,94019.94
2023-05-14T20:52:46.848Z,94018.72
2023-05-14T20:55:13.673Z,94019.13
2023-05-14T20:57:40.712Z,94012.88
2023-05-14T21:00:10.711Z,94008.59
2023-05-14T21:02:37.617Z,94000.44
2023-05-14T21:05:04.521Z,93992.66
2023-05-14T21:07:31.716Z,94002.38
2023-05-14T21:09:59.239Z,94005.91
2023-05-14T21:12:26.044Z,94004.75
2023-05-14T21:14:52.561Z,94000.81
2023-05-14T21:17:19.153Z,94009.41
2023-05-14T21:19:45.937Z,94010.56
2023-05-14T21:22:12.796Z,94011.72
2023-05-14T21:24:39.325Z,94008.25
2023-05-14T21:27:06.110Z,94008.25
2023-05-14T21:29:32.678Z,94004.75
2023-05-14T21:31:59.294Z,94011.72
2023-05-14T21:34:25.912Z,94008.25
2023-05-14T21:36:52.784Z,94015.66
2023-05-14T21:39:19.936Z,94018.38
2023-05-14T21:41:46.442Z,94022.28
2023-05-14T21:44:13.002Z,94024.22
2023-05-14T21:46:39.650Z,94023.44
2023-05-14T21:49:06.201Z,94020.31
2023-05-14T21:51:33.067Z,94023.03
2023-05-14T21:53:59.631Z,94014.47
2023-05-14T21:56:26.304Z,94018.75
2023-05-14T21:58:55.160Z,94009.81
2023-05-14T22:01:21.790Z,94008.25
2023-05-14T22:03:48.523Z,94006.28
2023-05-14T22:06:15.098Z,94007.84
2023-05-14T22:08:41.613Z,94005.13
2023-05-14T22:11:08.182Z,94009.41
2023-05-14T22:13:35.878Z,94006.28
2023-05-14T22:16:12.105Z,94007.47
2023-05-14T22:18:40.365Z,94010.56
2023-05-14T22:21:06.945Z,94002.00
2023-05-14T22:23:33.458Z,94003.16
2023-05-14T22:26:00.017Z,94004.34
2023-05-14T22:28:26.614Z,94005.09
2023-05-14T22:30:53.209Z,94003.16
2023-05-14T22:33:19.793Z,93990.31
2023-05-14T22:35:46.342Z,93993.03
2023-05-14T22:38:14.061Z,93991.44
2023-05-14T22:40:40.739Z,93992.63
2023-05-14T22:43:07.281Z,93995.34
2023-05-14T22:45:33.842Z,93992.59
2023-05-14T22:48:00.534Z,93987.91
2023-05-14T22:50:27.100Z,93989.09
2023-05-14T22:52:53.634Z,93987.56
2023-05-14T22:55:20.182Z,93990.66
2023-05-14T22:57:46.728Z,93988.28
2023-05-14T23:00:13.731Z,93991.41
2023-05-14T23:02:40.435Z,93983.25
2023-05-14T23:05:08.272Z,93989.50
2023-05-14T23:07:35.333Z,93988.34
2023-05-14T23:10:01.995Z,93986.78
2023-05-14T23:12:28.549Z,93986.00
2023-05-14T23:14:55.087Z,93991.06
2023-05-14T23:17:21.690Z,93991.06
2023-05-14T23:19:48.270Z,93986.41
2023-05-14T23:22:14.857Z,93990.31
2023-05-14T23:24:41.375Z,93987.56
2023-05-14T23:27:07.948Z,93986.78
2023-05-14T23:29:34.509Z,93989.91
2023-05-14T23:32:01.081Z,93990.72
2023-05-14T23:34:27.864Z,93982.91
2023-05-14T23:36:54.783Z,93972.78
2023-05-14T23:39:21.705Z,93981.38
2023-05-14T23:41:48.222Z,93981.75
2023-05-14T23:44:15.195Z,93977.84
2023-05-14T23:46:41.732Z,93969.66
2023-05-14T23:49:08.336Z,93973.19
2023-05-14T23:51:35.015Z,93970.84
2023-05-14T23:54:01.555Z,93970.06
2023-05-14T23:56:29.230Z,93965.00
2023-05-14T23:58:56.228Z,93959.91
